Main page
METAR-TAF:

METAR-TAF

Airports :

Kansas City International Airport

Kansas City, Missouri, United States

latitude: 39-17-50N, longitude: 094-43-50W, elevation: 312 m

Current weather observation

The report was made 55 minutes ago, at 04:53 UTC
Wind 7 kt from the North/Northwest
Temperature -7°C
Humidity 67%
Pressure 1034 hPa
Visibility: 16.1 km
Clear sky

METAR: KMCI 130453Z 34007KT 10SM CLR M07/M12 A3052 RMK AO2 SLP348 T10721117

Time: 23:48 (05:48 UTC)

Forecast

The report was made 28 minutes ago, at 05:20 UTC
Forecast valid from 13 at 06 UTC to 14 at 06 UTC
Wind 8 kt from the North/Northwest
Visibility: 10 km
Clear sky
From 14 at 0000 UTC
Wind 3 kt from the West/Northwest
Visibility: 10 km
Clear sky

TAF: KMCI 130520Z 1306/1406 34008KT P6SM SKC FM140000 29003KT P6SM SKC

Weather observations and forecasts of more than 4000 airports (METAR and TAF reports).

The available stations are represented by yellow and red dots on the map.

Hover mouse over dot to see the name of the station.

Then click to see weather observations and forecasts.

To change the map : click on the green buttons with a black cross to zoom in, on the green button with a dash to zoom out, or on the green arrows for adjacent maps.


METAR-TAF: